createdAt,value
2022-11-28T00:01:47.440Z,6.28
2022-11-28T00:04:16.203Z,6.40
2022-11-28T00:06:47.043Z,5.95
2022-11-28T00:09:16.295Z,6.18
2022-11-28T00:11:45.657Z,5.45
2022-11-28T00:14:13.481Z,5.93
2022-11-28T00:16:40.580Z,7.63
2022-11-28T00:19:08.443Z,6.03
2022-11-28T00:21:35.646Z,5.95
2022-11-28T00:24:03.287Z,6.00
2022-11-28T00:26:36.540Z,6.55
2022-11-28T00:29:05.170Z,6.88
2022-11-28T00:31:36.028Z,5.63
2022-11-28T00:34:03.507Z,5.97
2022-11-28T00:36:31.481Z,5.40
2022-11-28T00:38:58.469Z,6.05
2022-11-28T00:41:28.992Z,6.32
2022-11-28T00:43:56.633Z,6.03
2022-11-28T00:46:26.655Z,5.78
2022-11-28T00:48:54.169Z,6.00
2022-11-28T00:51:28.719Z,6.43
2022-11-28T00:53:57.911Z,7.35
2022-11-28T00:56:28.319Z,6.68
2022-11-28T00:58:57.285Z,6.13
2022-11-28T01:01:30.533Z,6.93
2022-11-28T01:03:59.592Z,6.03
2022-11-28T01:06:42.016Z,6.05
2022-11-28T01:09:14.699Z,7.03
2022-11-28T01:11:44.753Z,7.30
2022-11-28T01:14:14.440Z,6.45
2022-11-28T01:16:42.234Z,7.50
2022-11-28T01:19:12.537Z,6.13
2022-11-28T01:21:42.065Z,7.97
2022-11-28T01:24:10.386Z,7.18
2022-11-28T01:26:40.556Z,6.82
2022-11-28T01:29:08.364Z,6.20
2022-11-28T01:31:38.957Z,7.38
2022-11-28T01:34:10.858Z,7.72
2022-11-28T01:36:38.078Z,7.70
2022-11-28T01:39:06.285Z,8.00
2022-11-28T01:41:33.679Z,7.25
2022-11-28T01:44:14.686Z,7.45
2022-11-28T01:46:43.114Z,7.57
2022-11-28T01:49:16.250Z,8.05
2022-11-28T01:51:48.099Z,8.98
2022-11-28T01:54:17.066Z,7.78
2022-11-28T01:56:51.348Z,8.65
2022-11-28T01:59:21.298Z,9.48
2022-11-28T02:01:52.487Z,7.88
2022-11-28T02:04:20.403Z,8.48
2022-11-28T02:06:47.600Z,8.02
2022-11-28T02:12:00.247Z,8.15
2022-11-28T02:14:44.667Z,8.02
2022-11-28T02:17:46.240Z,7.68
2022-11-28T02:20:25.724Z,8.23
2022-11-28T02:23:01.784Z,8.13
2022-11-28T02:25:55.010Z,8.45
2022-11-28T02:28:48.130Z,8.88
2022-11-28T02:31:26.110Z,8.30
2022-11-28T02:33:59.726Z,8.77
2022-11-28T02:36:36.348Z,8.57
2022-11-28T02:39:28.323Z,8.25
2022-11-28T02:42:20.214Z,8.82
2022-11-28T02:44:56.182Z,9.57
2022-11-28T02:47:30.317Z,8.75
2022-11-28T02:50:10.035Z,9.18
2022-11-28T02:52:42.309Z,8.20
2022-11-28T02:55:09.570Z,8.52
2022-11-28T02:57:42.455Z,8.48
2022-11-28T03:00:36.344Z,8.45
2022-11-28T03:03:40.038Z,8.25
2022-11-28T03:06:16.246Z,8.20
2022-11-28T03:09:10.777Z,7.25
2022-11-28T03:11:57.215Z,8.43
2022-11-28T03:15:04.048Z,8.52
2022-11-28T03:17:49.471Z,7.85
2022-11-28T03:20:42.846Z,9.10
2022-11-28T03:23:25.005Z,8.85
2022-11-28T03:26:01.553Z,7.90
2022-11-28T03:28:32.262Z,7.53
2022-11-28T03:31:16.011Z,9.68
2022-11-28T03:33:48.882Z,8.65
2022-11-28T03:36:21.245Z,9.38
2022-11-28T03:39:00.404Z,8.32
2022-11-28T03:41:41.194Z,8.70
2022-11-28T03:44:14.419Z,9.02
2022-11-28T03:46:48.403Z,8.65
2022-11-28T03:49:24.170Z,7.65
2022-11-28T03:52:08.131Z,9.43
2022-11-28T03:54:43.678Z,8.00
2022-11-28T03:57:17.612Z,7.20
2022-11-28T03:59:52.003Z,9.55
2022-11-28T04:02:29.998Z,8.15
2022-11-28T04:05:29.284Z,7.80
2022-11-28T04:08:19.066Z,10.48
2022-11-28T04:11:08.682Z,9.57
2022-11-28T04:13:44.029Z,8.85
2022-11-28T04:16:34.743Z,9.20
2022-11-28T04:19:21.965Z,8.88
2022-11-28T04:21:58.152Z,9.75
2022-11-28T04:24:31.751Z,9.23
2022-11-28T04:27:06.324Z,9.52
2022-11-28T04:29:38.764Z,9.18
2022-11-28T04:32:07.977Z,12.70
2022-11-28T04:34:36.480Z,12.13
2022-11-28T04:37:09.727Z,10.30
2022-11-28T04:39:38.631Z,10.13
2022-11-28T04:42:13.744Z,10.57
2022-11-28T04:45:01.061Z,11.05
2022-11-28T04:47:29.598Z,10.87
2022-11-28T04:49:58.810Z,10.35
2022-11-28T04:52:40.796Z,11.60
2022-11-28T04:55:26.321Z,9.25
2022-11-28T04:58:02.217Z,10.05
2022-11-28T05:00:33.306Z,9.57
2022-11-28T05:03:02.392Z,10.55
2022-11-28T05:05:36.832Z,9.02
2022-11-28T05:08:05.703Z,9.70
2022-11-28T05:10:38.258Z,9.98
2022-11-28T05:13:15.315Z,10.63
2022-11-28T05:15:57.643Z,10.32
2022-11-28T05:18:29.335Z,10.55
2022-11-28T05:20:59.425Z,10.95
2022-11-28T05:23:26.600Z,9.75
2022-11-28T05:25:53.528Z,9.98
2022-11-28T05:28:20.342Z,10.35
2022-11-28T05:30:57.100Z,10.82
2022-11-28T05:33:23.869Z,9.87
2022-11-28T05:35:50.758Z,10.05
2022-11-28T05:38:17.511Z,10.63
2022-11-28T05:40:44.392Z,9.15
2022-11-28T05:43:11.950Z,9.52
2022-11-28T05:45:44.659Z,10.82
2022-11-28T05:48:12.100Z,10.93
2022-11-28T05:50:40.599Z,11.65
2022-11-28T05:53:07.786Z,10.68
2022-11-28T05:55:36.843Z,10.65
2022-11-28T05:58:04.131Z,10.75
2022-11-28T06:00:31.217Z,11.13
2022-11-28T06:03:01.342Z,12.40
2022-11-28T06:05:42.237Z,9.95
2022-11-28T06:08:12.230Z,11.18
2022-11-28T06:10:39.140Z,9.80
2022-11-28T06:13:06.114Z,9.95
2022-11-28T06:15:37.484Z,10.77
2022-11-28T06:18:05.453Z,9.60
2022-11-28T06:20:34.412Z,10.77
2022-11-28T06:23:01.235Z,10.93
2022-11-28T06:25:30.201Z,10.50
2022-11-28T06:27:56.915Z,11.05
2022-11-28T06:30:23.631Z,10.68
2022-11-28T06:32:50.395Z,11.43
2022-11-28T06:35:17.361Z,9.35
2022-11-28T06:37:44.169Z,10.20
2022-11-28T06:40:11.133Z,11.35
2022-11-28T06:42:38.085Z,11.35
2022-11-28T06:45:05.838Z,11.60
2022-11-28T06:47:32.901Z,10.27
2022-11-28T06:49:59.590Z,11.82
2022-11-28T06:52:26.644Z,10.98
2022-11-28T06:54:53.447Z,10.40
2022-11-28T06:57:20.212Z,10.73
2022-11-28T06:59:48.700Z,9.32
2022-11-28T07:02:15.672Z,10.00
2022-11-28T07:07:12.529Z,10.85
2022-11-28T07:09:42.073Z,10.65
2022-11-28T07:14:35.941Z,9.48
2022-11-28T07:17:02.758Z,10.68
2022-11-28T07:19:29.548Z,10.20
2022-11-28T07:21:56.369Z,10.68
2022-11-28T07:24:23.187Z,11.93
2022-11-28T07:26:49.895Z,8.77
2022-11-28T07:29:18.334Z,8.93
2022-11-28T07:31:45.576Z,9.32
2022-11-28T07:34:12.519Z,11.40
2022-11-28T07:36:39.883Z,9.63
2022-11-28T07:39:11.032Z,9.50
2022-11-28T07:41:37.794Z,10.48
2022-11-28T07:44:05.113Z,9.13
2022-11-28T07:46:34.087Z,10.38
2022-11-28T07:49:01.463Z,10.48
2022-11-28T07:51:30.665Z,10.38
2022-11-28T07:53:57.723Z,11.07
2022-11-28T07:59:16.215Z,9.30
2022-11-28T08:01:43.084Z,9.95
2022-11-28T08:04:10.289Z,10.05
2022-11-28T08:06:40.887Z,10.50
2022-11-28T08:09:08.737Z,9.90
2022-11-28T08:11:36.085Z,10.82
2022-11-28T08:14:03.952Z,8.75
2022-11-28T08:16:31.822Z,9.05
2022-11-28T08:19:04.936Z,9.13
2022-11-28T08:21:33.939Z,8.90
2022-11-28T08:24:02.349Z,9.82
2022-11-28T08:26:31.215Z,9.02
2022-11-28T08:28:58.841Z,8.48
2022-11-28T08:31:28.689Z,9.13
2022-11-28T08:33:57.329Z,9.75
2022-11-28T08:36:24.387Z,9.52
2022-11-28T08:39:09.528Z,10.30
2022-11-28T08:41:38.493Z,9.60
2022-11-28T08:44:05.329Z,10.20
2022-11-28T08:46:32.584Z,11.07
2022-11-28T08:49:04.190Z,9.30
2022-11-28T08:51:31.878Z,10.75
2022-11-28T08:53:59.908Z,11.05
2022-11-28T08:56:27.801Z,9.48
2022-11-28T08:58:55.260Z,9.07
2022-11-28T09:01:24.846Z,10.80
2022-11-28T09:03:52.803Z,9.25
2022-11-28T09:06:21.073Z,9.40
2022-11-28T09:08:48.966Z,9.65
2022-11-28T09:11:18.630Z,10.35
2022-11-28T09:13:46.021Z,9.15
2022-11-28T09:16:14.336Z,9.68
2022-11-28T09:18:41.639Z,8.77
2022-11-28T09:23:41.126Z,8.93
2022-11-28T09:26:13.385Z,8.65
2022-11-28T09:28:40.360Z,10.07
2022-11-28T09:31:07.653Z,8.85
2022-11-28T09:33:35.661Z,9.15
2022-11-28T09:36:07.827Z,10.02
2022-11-28T09:38:34.838Z,10.73
2022-11-28T09:43:42.228Z,9.30
2022-11-28T09:46:20.845Z,8.73
2022-11-28T09:48:54.373Z,9.65
2022-11-28T09:51:25.142Z,9.30
2022-11-28T09:54:13.470Z,10.95
2022-11-28T09:56:40.956Z,10.13
2022-11-28T09:59:28.817Z,8.60
2022-11-28T10:01:55.542Z,11.48
2022-11-28T10:04:44.270Z,9.20
2022-11-28T10:07:13.957Z,9.25
2022-11-28T10:10:03.644Z,9.75
2022-11-28T10:12:36.393Z,9.18
2022-11-28T10:15:26.325Z,9.48
2022-11-28T10:18:11.926Z,8.18
2022-11-28T10:20:43.396Z,8.55
2022-11-28T10:23:29.948Z,8.80
2022-11-28T10:26:06.703Z,9.38
2022-11-28T10:28:37.983Z,8.25
2022-11-28T10:31:07.740Z,8.57
2022-11-28T10:34:01.743Z,8.93
2022-11-28T10:36:34.817Z,8.70
2022-11-28T10:39:11.379Z,9.82
2022-11-28T10:42:07.909Z,9.97
2022-11-28T10:44:49.488Z,9.18
2022-11-28T10:47:31.461Z,9.65
2022-11-28T10:50:16.166Z,8.18
2022-11-28T10:53:23.858Z,10.45
2022-11-28T10:56:11.711Z,10.63
2022-11-28T10:58:54.966Z,10.35
2022-11-28T11:01:22.089Z,9.68
2022-11-28T11:06:15.916Z,9.00
2022-11-28T11:08:42.700Z,10.32
2022-11-28T11:11:27.956Z,10.18
2022-11-28T11:14:07.884Z,9.13
2022-11-28T11:16:51.735Z,8.73
2022-11-28T11:19:34.268Z,11.15
2022-11-28T11:22:01.026Z,10.27
2022-11-28T11:24:28.429Z,11.27
2022-11-28T11:27:04.613Z,29.77
2022-11-28T11:29:37.582Z,11.75
2022-11-28T11:32:06.505Z,17.65
2022-11-28T11:34:42.412Z,45.55
2022-11-28T11:37:28.950Z,12.27
2022-11-28T11:39:55.884Z,57.28
2022-11-28T11:42:28.821Z,11.30
2022-11-28T11:44:56.689Z,12.60
2022-11-28T11:47:44.166Z,17.55
2022-11-28T11:50:20.685Z,13.45
2022-11-28T11:53:12.230Z,12.68
2022-11-28T11:55:52.780Z,11.70
2022-11-28T11:58:24.479Z,79.43
2022-11-28T12:00:54.825Z,13.05
2022-11-28T12:03:38.146Z,40.17
2022-11-28T12:06:14.845Z,13.90
2022-11-28T12:08:54.317Z,11.93
2022-11-28T12:11:28.799Z,14.02
2022-11-28T12:14:22.302Z,13.02
2022-11-28T12:16:57.876Z,11.98
2022-11-28T12:19:49.342Z,13.70
2022-11-28T12:22:31.445Z,10.13
2022-11-28T12:25:10.715Z,12.48
2022-11-28T12:27:46.102Z,11.75
2022-11-28T12:30:34.160Z,10.75
2022-11-28T12:33:18.920Z,10.73
2022-11-28T12:36:14.734Z,11.48
2022-11-28T12:39:09.751Z,12.65
2022-11-28T12:42:01.862Z,10.82
2022-11-28T12:44:54.283Z,10.75
2022-11-28T12:47:34.258Z,13.82
2022-11-28T12:50:15.273Z,11.93
2022-11-28T12:52:53.931Z,12.43
2022-11-28T12:55:31.566Z,13.82
2022-11-28T13:00:35.921Z,13.00
2022-11-28T13:03:05.718Z,10.60
2022-11-28T13:06:11.630Z,12.30
2022-11-28T13:09:20.516Z,13.15
2022-11-28T13:12:02.429Z,10.70
2022-11-28T13:15:10.115Z,11.77
2022-11-28T13:17:42.762Z,14.30
2022-11-28T13:20:18.787Z,12.60
2022-11-28T13:22:57.512Z,12.57
2022-11-28T13:25:43.477Z,11.77
2022-11-28T13:28:15.767Z,12.20
2022-11-28T13:31:05.555Z,14.60
2022-11-28T13:33:52.027Z,13.05
2022-11-28T13:40:13.635Z,11.63
2022-11-28T13:43:07.050Z,12.30
2022-11-28T13:45:39.227Z,10.85
2022-11-28T13:49:06.055Z,12.02
2022-11-28T13:51:31.128Z,10.30
2022-11-28T13:54:16.951Z,10.85
2022-11-28T13:57:03.445Z,11.02
2022-11-28T13:59:31.228Z,12.07
2022-11-28T14:02:01.870Z,10.30
2022-11-28T14:04:30.919Z,10.82
2022-11-28T14:07:06.609Z,11.90
2022-11-28T14:09:55.426Z,10.18
2022-11-28T14:12:58.391Z,10.85
2022-11-28T14:15:38.539Z,13.35
2022-11-28T14:18:56.189Z,10.95
2022-11-28T14:21:59.243Z,166.68
2022-11-28T14:24:44.579Z,58.50
2022-11-28T14:27:23.350Z,15.15
2022-11-28T14:29:53.902Z,23.60
2022-11-28T14:32:42.254Z,173.00
2022-11-28T14:35:54.948Z,254.95
2022-11-28T14:38:32.162Z,76.05
2022-11-28T14:43:29.710Z,158.23
2022-11-28T14:46:15.612Z,86.57
2022-11-28T14:48:57.980Z,40.13
2022-11-28T14:51:43.824Z,77.93
2022-11-28T14:54:31.796Z,94.15
2022-11-28T14:57:00.125Z,96.50
2022-11-28T14:59:36.910Z,23.77
2022-11-28T15:02:12.956Z,18.75
2022-11-28T15:05:29.762Z,14.68
2022-11-28T15:08:23.700Z,13.82
2022-11-28T15:11:32.857Z,68.10
2022-11-28T15:14:17.891Z,225.73
2022-11-28T15:16:50.561Z,142.98
2022-11-28T15:19:28.567Z,202.60
2022-11-28T15:21:56.371Z,271.65
2022-11-28T15:24:30.471Z,100.88
2022-11-28T15:27:10.137Z,26.75
2022-11-28T15:29:37.655Z,20.38
2022-11-28T15:34:34.793Z,15.32
2022-11-28T15:37:06.368Z,16.75
2022-11-28T15:39:39.352Z,16.65
2022-11-28T15:42:30.087Z,14.60
2022-11-28T15:45:13.196Z,38.30
2022-11-28T15:47:40.438Z,25.38
2022-11-28T15:50:10.226Z,21.98
2022-11-28T15:52:37.989Z,16.98
2022-11-28T15:55:26.023Z,15.80
2022-11-28T15:58:13.039Z,16.60
2022-11-28T16:00:43.212Z,14.25
2022-11-28T16:03:18.993Z,15.43
2022-11-28T16:05:47.873Z,13.23
2022-11-28T16:08:37.209Z,14.50
2022-11-28T16:11:07.204Z,16.95
2022-11-28T16:13:34.837Z,16.90
2022-11-28T16:16:04.069Z,16.15
2022-11-28T16:18:31.389Z,14.85
2022-11-28T16:21:01.735Z,14.35
2022-11-28T16:23:30.578Z,13.02
2022-11-28T16:26:23.052Z,20.30
2022-11-28T16:29:06.972Z,24.17
2022-11-28T16:31:35.006Z,24.15
2022-11-28T16:34:02.788Z,26.25
2022-11-28T16:36:37.017Z,21.70
2022-11-28T16:39:16.423Z,18.85
2022-11-28T16:41:51.862Z,19.67
2022-11-28T16:44:22.238Z,19.20
2022-11-28T16:46:55.041Z,17.23
2022-11-28T16:49:39.266Z,16.67
2022-11-28T16:52:21.543Z,15.18
2022-11-28T16:54:49.612Z,16.63
2022-11-28T16:57:16.925Z,15.45
2022-11-28T16:59:44.840Z,16.02
2022-11-28T17:02:17.492Z,15.20
2022-11-28T17:04:46.166Z,16.45
2022-11-28T17:07:16.409Z,15.90
2022-11-28T17:09:45.687Z,17.45
2022-11-28T17:12:39.360Z,15.00
2022-11-28T17:15:08.708Z,16.00
2022-11-28T17:17:36.395Z,18.33
2022-11-28T17:20:03.695Z,21.40
2022-11-28T17:22:40.969Z,19.40
2022-11-28T17:27:48.659Z,19.98
2022-11-28T17:30:17.189Z,19.02
2022-11-28T17:32:44.397Z,20.67
2022-11-28T17:35:20.175Z,21.90
2022-11-28T17:37:47.512Z,22.42
2022-11-28T17:40:32.771Z,23.50
2022-11-28T17:43:03.559Z,24.75
2022-11-28T17:45:34.420Z,21.30
2022-11-28T17:48:01.444Z,21.92
2022-11-28T17:50:28.548Z,20.02
2022-11-28T17:52:58.006Z,22.13
2022-11-28T17:55:25.215Z,20.35
2022-11-28T17:57:54.011Z,18.90
2022-11-28T18:00:21.075Z,20.30
2022-11-28T18:02:48.215Z,18.98
2022-11-28T18:07:42.197Z,24.10
2022-11-28T18:10:11.741Z,24.23
2022-11-28T18:12:39.504Z,25.65
2022-11-28T18:15:08.278Z,23.10
2022-11-28T18:17:35.595Z,26.13
2022-11-28T18:20:03.625Z,23.98
2022-11-28T18:22:30.435Z,25.70
2022-11-28T18:24:58.293Z,29.98
2022-11-28T18:27:25.015Z,24.52
2022-11-28T18:29:52.645Z,22.63
2022-11-28T18:32:19.954Z,22.77
2022-11-28T18:34:48.684Z,26.92
2022-11-28T18:37:16.919Z,30.15
2022-11-28T18:39:44.097Z,29.08
2022-11-28T18:42:11.181Z,28.52
2022-11-28T18:47:15.461Z,23.42
2022-11-28T18:49:46.612Z,23.73
2022-11-28T18:52:13.802Z,22.30
2022-11-28T18:57:09.331Z,19.15
2022-11-28T18:59:37.776Z,22.30
2022-11-28T19:02:05.220Z,21.77
2022-11-28T19:04:34.324Z,29.35
2022-11-28T19:07:02.588Z,26.67
2022-11-28T19:09:33.138Z,35.58
2022-11-28T19:12:00.447Z,42.05
2022-11-28T19:14:28.112Z,44.58
2022-11-28T19:16:57.033Z,56.15
2022-11-28T19:19:24.109Z,49.90
2022-11-28T19:21:51.444Z,53.28
2022-11-28T19:24:18.697Z,39.72
2022-11-28T19:26:45.817Z,39.78
2022-11-28T19:31:41.505Z,30.45
2022-11-28T19:34:12.896Z,30.23
2022-11-28T19:36:42.416Z,30.60
2022-11-28T19:39:17.056Z,38.80
2022-11-28T19:41:45.180Z,30.70
2022-11-28T19:44:13.886Z,31.85
2022-11-28T19:46:41.487Z,32.50
2022-11-28T19:49:14.059Z,28.65
2022-11-28T19:51:42.516Z,26.95
2022-11-28T19:54:09.403Z,29.30
2022-11-28T19:56:36.449Z,29.35
2022-11-28T19:59:04.881Z,29.63
2022-11-28T20:01:34.666Z,37.28
2022-11-28T20:04:02.154Z,31.30
2022-11-28T20:06:31.584Z,30.65
2022-11-28T20:09:01.571Z,27.85
2022-11-28T20:11:32.149Z,24.52
2022-11-28T20:14:09.819Z,25.00
2022-11-28T20:19:05.555Z,30.27
2022-11-28T20:21:34.225Z,34.28
2022-11-28T20:24:04.703Z,28.27
2022-11-28T20:26:37.048Z,31.08
2022-11-28T20:29:04.611Z,24.70
2022-11-28T20:31:34.913Z,21.27
2022-11-28T20:34:03.915Z,21.63
2022-11-28T20:36:31.977Z,20.67
2022-11-28T20:38:59.504Z,20.33
2022-11-28T20:41:27.342Z,21.40
2022-11-28T20:43:54.456Z,21.27
2022-11-28T20:46:23.930Z,20.92
2022-11-28T20:48:50.987Z,18.92
2022-11-28T20:53:47.556Z,15.88
2022-11-28T20:56:23.458Z,16.98
2022-11-28T20:58:51.912Z,16.70
2022-11-28T21:01:25.907Z,16.85
2022-11-28T21:03:54.990Z,18.05
2022-11-28T21:06:22.429Z,16.60
2022-11-28T21:11:50.029Z,16.60
2022-11-28T21:14:09.135Z,17.55
2022-11-28T21:19:07.453Z,16.20
2022-11-28T21:21:35.957Z,18.13
2022-11-28T21:24:07.985Z,20.17
2022-11-28T21:26:40.474Z,18.85
2022-11-28T21:29:10.871Z,18.77
2022-11-28T21:31:41.394Z,17.27
2022-11-28T21:34:10.666Z,19.33
2022-11-28T21:36:37.478Z,19.15
2022-11-28T21:39:04.416Z,19.58
2022-11-28T21:41:32.555Z,20.08
2022-11-28T21:44:01.051Z,18.15
2022-11-28T21:46:28.679Z,19.13
2022-11-28T21:48:57.787Z,18.77
2022-11-28T21:51:26.134Z,17.67
2022-11-28T21:53:57.710Z,17.52
2022-11-28T21:56:25.717Z,19.92
2022-11-28T21:58:53.781Z,16.77
2022-11-28T22:01:21.497Z,17.95
2022-11-28T22:03:49.213Z,16.45
2022-11-28T22:06:18.005Z,17.42
2022-11-28T22:08:46.102Z,20.40
2022-11-28T22:11:13.464Z,18.58
2022-11-28T22:13:42.353Z,16.20
2022-11-28T22:16:13.580Z,15.10
2022-11-28T22:18:40.852Z,17.90
2022-11-28T22:21:28.546Z,18.33
2022-11-28T22:23:58.441Z,17.02
2022-11-28T22:26:25.419Z,15.90
2022-11-28T22:28:53.969Z,15.93
2022-11-28T22:31:23.216Z,19.15
2022-11-28T22:33:50.642Z,17.13
2022-11-28T22:36:20.316Z,17.00
2022-11-28T22:38:49.850Z,20.45
2022-11-28T22:41:27.958Z,16.55
2022-11-28T22:43:57.805Z,19.00
2022-11-28T22:46:24.994Z,17.52
2022-11-28T22:48:52.167Z,17.58
2022-11-28T22:51:22.083Z,18.05
2022-11-28T22:53:56.516Z,16.90
2022-11-28T22:56:26.625Z,17.83
2022-11-28T22:58:54.377Z,18.38
2022-11-28T23:01:24.399Z,20.92
2022-11-28T23:03:55.356Z,21.02
2022-11-28T23:06:30.446Z,17.20
2022-11-28T23:08:59.669Z,19.05
2022-11-28T23:11:31.150Z,18.13
2022-11-28T23:13:59.987Z,18.08
2022-11-28T23:16:31.460Z,17.42
2022-11-28T23:19:02.470Z,19.35
2022-11-28T23:21:31.990Z,18.20
2022-11-28T23:23:59.699Z,18.95
2022-11-28T23:26:30.195Z,15.90
2022-11-28T23:29:00.656Z,16.67
2022-11-28T23:31:30.140Z,19.05
2022-11-28T23:33:58.424Z,18.50
2022-11-28T23:36:28.430Z,16.15
2022-11-28T23:39:01.029Z,17.17
2022-11-28T23:41:29.569Z,17.00
2022-11-28T23:43:57.883Z,17.42
2022-11-28T23:46:26.349Z,17.20
2022-11-28T23:48:55.543Z,15.30
2022-11-28T23:51:24.906Z,17.42
2022-11-28T23:53:52.701Z,14.75
2022-11-28T23:56:25.928Z,20.02
2022-11-28T23:58:53.587Z,18.92
